Time;durP1;ratioP1;P1;durP2;ratioP2;P2;SDS_P1;SDS_P2;PMS_P1;PMS_P2;Temp;Humidity;BMP_temperature;BMP_pressure;BME280_temperature;BME280_humidity;BME280_pressure;Samples;Min_cycle;Max_cycle;Signal;HPM_P1;HPM_P2
2021/03/02 00:01:25;;;;;;;16.33;6.47;;;;;;;0.04;76.42;100376.84;5091024;28;20071;-83
2021/03/02 00:03:52;;;;;;;14.70;6.53;;;;;;;-0.02;76.68;100370.00;5092570;28;20052;-83
2021/03/02 00:06:25;;;;;;;11.63;6.63;;;;;;;0.29;76.05;100408.38;5091171;28;20052;-83
2021/03/02 00:08:51;;;;;;;16.17;7.13;;;;;;;0.17;76.46;100404.59;5092044;28;20503;-83
2021/03/02 00:11:18;;;;;;;14.23;6.30;;;;;;;0.17;75.89;100399.25;5091062;28;20109;-83
2021/03/02 00:13:44;;;;;;;15.57;7.57;;;;;;;-0.14;76.70;100368.91;5091686;28;20048;-83
2021/03/02 00:16:15;;;;;;;14.63;7.00;;;;;;;-0.12;77.17;100375.03;5083672;28;20452;-83
2021/03/02 00:18:46;;;;;;;14.03;6.17;;;;;;;-0.10;77.27;100396.34;5090402;28;20048;-82
2021/03/02 00:21:17;;;;;;;10.53;6.40;;;;;;;-0.12;77.93;100399.09;5091859;28;20117;-82
2021/03/02 00:23:52;;;;;;;20.40;5.57;;;;;;;-0.10;77.93;100394.53;5091695;28;20052;-83
2021/03/02 00:26:23;;;;;;;12.93;6.20;;;;;;;-0.15;78.24;100380.56;5091021;28;20044;-82
2021/03/02 00:28:51;;;;;;;11.47;5.63;;;;;;;-0.12;78.24;100398.22;5091089;28;20044;-83
2021/03/02 00:31:19;;;;;;;10.77;5.67;;;;;;;-0.25;77.22;100374.00;5092114;28;20044;-82
2021/03/02 00:33:47;;;;;;;11.03;5.53;;;;;;;-0.18;78.32;100391.44;5091905;28;20428;-82
2021/03/02 00:36:13;;;;;;;11.40;5.83;;;;;;;-0.36;78.25;100378.13;5090844;28;20059;-82
2021/03/02 00:38:40;;;;;;;12.33;5.73;;;;;;;-0.23;77.78;100420.19;5091148;28;20056;-82
2021/03/02 00:41:06;;;;;;;14.20;5.97;;;;;;;-0.31;77.88;100393.06;5091510;28;20051;-82
2021/03/02 00:43:33;;;;;;;11.13;5.57;;;;;;;-0.41;78.61;100398.03;5091360;28;20056;-82
2021/03/02 00:46:02;;;;;;;22.83;6.80;;;;;;;-0.32;78.66;100418.03;5090028;28;20040;-82
2021/03/02 00:48:29;;;;;;;12.95;6.63;;;;;;;-0.40;78.32;100416.66;5090774;28;20070;-82
2021/03/02 00:50:56;;;;;;;9.67;5.90;;;;;;;-0.57;77.79;100384.66;5091112;28;20046;-82
2021/03/02 00:53:22;;;;;;;14.33;6.60;;;;;;;-0.46;77.73;100397.44;5091325;28;20048;-82
2021/03/02 00:55:49;;;;;;;18.13;6.97;;;;;;;-0.42;77.38;100407.88;5090432;28;20066;-82
2021/03/02 00:58:15;;;;;;;13.20;6.57;;;;;;;-0.31;77.84;100414.44;5091566;28;20133;-82
2021/03/02 01:00:41;;;;;;;14.03;6.73;;;;;;;-0.36;77.51;100404.84;5088965;28;20055;-82
2021/03/02 01:03:08;;;;;;;15.07;6.67;;;;;;;-0.47;77.40;100401.91;5088763;28;20090;-82
2021/03/02 01:05:35;;;;;;;13.23;6.90;;;;;;;-0.55;77.51;100394.31;5090388;28;20044;-82
2021/03/02 01:08:01;;;;;;;10.73;6.13;;;;;;;-0.47;77.11;100417.94;5090918;28;20048;-82
2021/03/02 01:10:28;;;;;;;16.13;6.33;;;;;;;-0.59;78.01;100413.25;5090525;28;20056;-82
2021/03/02 01:12:54;;;;;;;12.00;6.53;;;;;;;-0.54;77.79;100405.88;5090293;28;20040;-82
2021/03/02 01:15:21;;;;;;;10.13;5.40;;;;;;;-0.56;77.84;100413.09;5090085;28;20603;-82
2021/03/02 01:17:49;;;;;;;12.67;6.67;;;;;;;-0.59;78.23;100418.59;5089188;28;20492;-82
2021/03/02 01:20:16;;;;;;;17.17;6.37;;;;;;;-0.76;78.75;100401.66;5090274;28;20482;-82
2021/03/02 01:22:43;;;;;;;12.40;6.67;;;;;;;-0.73;78.46;100389.97;5090547;28;20051;-82
2021/03/02 01:25:11;;;;;;;13.57;6.13;;;;;;;-0.73;78.35;100401.50;5090164;28;20078;-82
2021/03/02 01:27:38;;;;;;;16.97;5.37;;;;;;;-0.66;78.10;100394.03;5089288;28;20048;-81
2021/03/02 01:30:06;;;;;;;13.17;6.03;;;;;;;-0.67;78.79;100392.31;5091093;28;20051;-82
2021/03/02 01:32:32;;;;;;;12.57;5.03;;;;;;;-0.98;78.71;100377.94;5090333;28;20105;-82
2021/03/02 01:34:58;;;;;;;11.37;5.47;;;;;;;-0.91;79.42;100402.50;5089392;28;20062;-81
2021/03/02 01:37:25;;;;;;;15.33;6.73;;;;;;;-0.76;79.79;100411.50;5090016;28;20077;-81
2021/03/02 01:39:52;;;;;;;13.97;6.23;;;;;;;-0.95;80.01;100388.47;5090480;28;20416;-82
2021/03/02 01:42:18;;;;;;;14.13;6.23;;;;;;;-1.02;80.67;100371.03;5090453;28;20540;-81
2021/03/02 01:44:45;;;;;;;15.63;6.23;;;;;;;-0.84;80.27;100398.56;5089914;28;20058;-82
2021/03/02 01:47:11;;;;;;;13.53;6.87;;;;;;;-0.93;79.31;100389.22;5090823;28;20044;-82
2021/03/02 01:49:38;;;;;;;13.37;5.87;;;;;;;-0.84;79.65;100403.03;5090181;28;20036;-82
2021/03/02 01:52:04;;;;;;;13.60;7.37;;;;;;;-0.78;79.77;100398.22;5090340;28;20052;-81
2021/03/02 01:54:31;;;;;;;14.60;6.33;;;;;;;-0.86;79.69;100402.25;5089181;28;20287;-81
2021/03/02 01:56:58;;;;;;;16.17;5.83;;;;;;;-0.95;79.74;100384.91;5090581;28;20059;-82
2021/03/02 01:59:25;;;;;;;13.27;6.27;;;;;;;-0.91;80.45;100394.50;5089023;28;20101;-82
2021/03/02 02:01:51;;;;;;;10.40;6.13;;;;;;;-1.18;80.96;100373.63;5090413;28;20331;-82
2021/03/02 02:04:22;;;;;;;13.70;6.00;;;;;;;-1.04;80.32;100394.25;5090281;28;20403;-82
2021/03/02 02:06:53;;;;;;;8.50;5.37;;;;;;;-1.07;80.19;100405.09;5089696;28;20052;-81
2021/03/02 02:09:28;;;;;;;10.57;5.40;;;;;;;-0.95;79.86;100399.13;5082755;28;20572;-81
2021/03/02 02:12:05;;;;;;;11.03;5.67;;;;;;;-1.08;80.42;100374.03;5089570;28;20071;-82
2021/03/02 02:14:43;;;;;;;11.73;6.63;;;;;;;-1.11;80.33;100372.38;5089701;28;20044;-81
2021/03/02 02:17:18;;;;;;;12.73;6.27;;;;;;;-1.04;80.64;100393.41;5087971;28;20086;-81
2021/03/02 02:19:48;;;;;;;10.40;5.90;;;;;;;-1.11;81.69;100384.88;5090444;28;20048;-82
2021/03/02 02:22:26;;;;;;;16.27;6.63;;;;;;;-1.12;82.20;100397.34;5089586;28;20052;-81
2021/03/02 02:25:13;;;;;;;19.97;7.20;;;;;;;-1.04;81.20;100388.06;5089155;28;20055;-81
2021/03/02 02:27:42;;;;;;;10.63;5.60;;;;;;;-1.22;81.66;100364.06;5089157;28;20048;-81
2021/03/02 02:30:10;;;;;;;12.15;6.53;;;;;;;-1.20;81.66;100388.88;5090451;28;20142;-82
2021/03/02 02:32:38;;;;;;;11.47;6.33;;;;;;;-1.39;82.27;100362.28;5089806;28;20054;-82
2021/03/02 02:35:06;;;;;;;13.87;5.80;;;;;;;-1.24;82.94;100403.31;5087974;28;20138;-81
2021/03/02 02:37:34;;;;;;;11.50;5.93;;;;;;;-1.21;82.67;100402.31;5090001;28;20399;-81
2021/03/02 02:40:02;;;;;;;13.40;6.23;;;;;;;-1.22;82.51;100398.75;5092484;28;20040;-81
2021/03/02 02:42:31;;;;;;;17.93;7.50;;;;;;;-1.45;82.97;100366.13;5094476;28;20048;-82
2021/03/02 02:44:59;;;;;;;13.27;6.10;;;;;;;-1.23;82.78;100398.81;5092094;28;20047;-81
2021/03/02 02:47:26;;;;;;;16.73;6.97;;;;;;;-1.33;82.52;100379.78;5093282;28;20056;-82
2021/03/02 02:49:54;;;;;;;17.13;6.53;;;;;;;-1.28;81.67;100383.06;5092414;28;20051;-82
2021/03/02 02:52:20;;;;;;;11.40;6.30;;;;;;;-1.25;81.82;100390.91;5094407;28;20059;-82
2021/03/02 02:54:49;;;;;;;15.03;6.70;;;;;;;-1.38;81.57;100374.69;5092621;28;20055;-81
2021/03/02 02:57:17;;;;;;;15.40;7.13;;;;;;;-1.28;81.63;100373.28;5092726;28;20551;-81
2021/03/02 02:59:47;;;;;;;15.30;6.87;;;;;;;-1.23;81.38;100385.50;5091785;28;20052;-81
2021/03/02 03:02:19;;;;;;;11.80;7.00;;;;;;;-1.18;81.08;100391.47;5093121;28;20055;-81
2021/03/02 03:04:51;;;;;;;14.73;6.60;;;;;;;-1.41;80.90;100357.97;5092318;28;20052;-81
2021/03/02 03:07:22;;;;;;;18.17;7.07;;;;;;;-1.30;80.58;100383.13;5092668;28;20411;-81
2021/03/02 03:09:50;;;;;;;16.40;7.33;;;;;;;-1.29;80.90;100395.53;5093114;28;20403;-81
2021/03/02 03:12:17;;;;;;;14.30;6.40;;;;;;;-1.41;81.71;100376.66;5092912;28;20040;-81
2021/03/02 03:14:52;;;;;;;14.47;6.63;;;;;;;-1.40;82.29;100383.69;5091596;28;20174;-81
2021/03/02 03:17:21;;;;;;;14.57;7.00;;;;;;;-1.47;81.76;100378.69;5090799;28;20052;-81
2021/03/02 03:19:48;;;;;;;16.30;6.67;;;;;;;-1.43;81.99;100396.25;5093091;28;20105;-81
2021/03/02 03:22:16;;;;;;;14.50;6.33;;;;;;;-1.51;81.82;100370.91;5092584;28;20063;-82
2021/03/02 03:24:43;;;;;;;12.27;6.30;;;;;;;-1.40;82.29;100394.38;5091885;28;20064;-81
2021/03/02 03:27:10;;;;;;;12.47;6.00;;;;;;;-1.61;82.34;100379.38;5092342;28;20052;-81
2021/03/02 03:29:38;;;;;;;20.47;7.10;;;;;;;-1.59;81.98;100376.66;5084973;28;20480;-81
2021/03/02 03:32:07;;;;;;;14.70;7.60;;;;;;;-1.64;82.24;100373.31;5092086;28;20063;-81
2021/03/02 03:34:35;;;;;;;13.88;6.07;;;;;;;-1.47;81.83;100402.69;5091982;28;20040;-81
2021/03/02 03:37:03;;;;;;;17.63;6.93;;;;;;;-1.51;81.18;100398.44;5092850;28;20084;-81
2021/03/02 03:39:29;;;;;;;15.53;6.43;;;;;;;-1.53;81.89;100405.66;5092395;28;20450;-81
2021/03/02 03:41:56;;;;;;;13.53;7.13;;;;;;;-1.49;81.84;100412.59;5092223;28;20087;-81
2021/03/02 03:44:22;;;;;;;19.83;6.90;;;;;;;-1.59;81.60;100397.97;5091690;28;20063;-81
2021/03/02 03:46:48;;;;;;;9.77;5.97;;;;;;;-1.72;81.67;100405.72;5091981;28;20056;-81
2021/03/02 03:49:14;;;;;;;10.57;5.80;;;;;;;-1.64;81.17;100392.00;5091949;28;20044;-81
2021/03/02 03:51:43;;;;;;;12.80;6.10;;;;;;;-1.46;81.66;100417.75;5091450;28;20044;-81
2021/03/02 03:54:11;;;;;;;14.20;6.37;;;;;;;-1.54;81.86;100422.59;5091704;28;20067;-82
2021/03/02 03:56:37;;;;;;;11.90;5.47;;;;;;;-1.57;82.18;100424.56;5092361;28;20044;-81
2021/03/02 03:59:05;;;;;;;14.10;6.10;;;;;;;-1.67;81.71;100416.16;5090432;28;20048;-81
2021/03/02 04:01:32;;;;;;;10.40;6.00;;;;;;;-1.72;81.77;100412.84;5091789;28;20091;-81
2021/03/02 04:03:58;;;;;;;12.57;5.90;;;;;;;-1.73;82.48;100432.44;5091872;28;20036;-81
2021/03/02 04:06:25;;;;;;;14.90;6.87;;;;;;;-1.75;82.73;100424.53;5091185;28;20044;-81
2021/03/02 04:08:52;;;;;;;11.43;5.93;;;;;;;-1.83;82.47;100432.06;5092682;28;20044;-80
2021/03/02 04:11:19;;;;;;;14.80;6.33;;;;;;;-1.93;82.02;100412.97;5091663;28;20407;-81
2021/03/02 04:13:45;;;;;;;8.90;5.87;;;;;;;-1.88;81.99;100410.97;5090900;28;20056;-81
2021/03/02 04:16:12;;;;;;;12.23;6.73;;;;;;;-1.87;82.72;100415.31;5090971;28;20044;-81
2021/03/02 04:18:38;;;;;;;18.13;7.50;;;;;;;-1.90;82.91;100409.28;5090242;28;20044;-81
2021/03/02 04:21:05;;;;;;;15.63;6.77;;;;;;;-1.80;83.38;100423.91;5091302;28;20139;-81
2021/03/02 04:23:31;;;;;;;13.67;6.00;;;;;;;-1.81;82.88;100420.38;5091574;28;20059;-81
2021/03/02 04:25:59;;;;;;;13.33;6.73;;;;;;;-1.86;82.62;100425.06;5091402;28;20048;-81
2021/03/02 04:28:25;;;;;;;10.00;5.83;;;;;;;-1.84;83.20;100436.50;5091648;28;20044;-81
2021/03/02 04:30:51;;;;;;;15.27;6.67;;;;;;;-1.84;82.64;100420.50;5091213;28;20051;-81
2021/03/02 04:33:17;;;;;;;16.10;7.10;;;;;;;-1.73;82.63;100444.00;5091706;28;20056;-81
2021/03/02 04:35:45;;;;;;;12.30;6.20;;;;;;;-1.76;82.66;100429.94;5091755;28;20546;-81
2021/03/02 04:38:12;;;;;;;14.10;6.30;;;;;;;-1.97;82.67;100395.41;5094041;28;20094;-80
2021/03/02 04:40:38;;;;;;;11.00;5.63;;;;;;;-1.80;82.73;100437.22;5091226;28;20052;-81
2021/03/02 04:43:05;;;;;;;12.13;6.77;;;;;;;-1.94;83.84;100416.59;5091435;28;20056;-81
2021/03/02 04:45:32;;;;;;;14.90;7.30;;;;;;;-1.86;84.20;100422.41;5090765;28;20048;-81
2021/03/02 04:47:58;;;;;;;15.30;7.20;;;;;;;-1.90;83.43;100423.47;5091372;28;20079;-80
2021/03/02 04:50:25;;;;;;;15.40;7.03;;;;;;;-1.96;82.74;100414.00;5091004;28;20048;-80
2021/03/02 04:52:51;;;;;;;16.40;6.83;;;;;;;-1.94;83.01;100429.03;5091189;28;20488;-81
2021/03/02 04:55:17;;;;;;;16.97;7.07;;;;;;;-1.78;83.68;100462.00;5090359;28;20059;-80
2021/03/02 04:57:43;;;;;;;12.97;6.93;;;;;;;-1.86;83.43;100449.06;5089761;28;20451;-80
2021/03/02 05:00:13;;;;;;;14.47;6.87;;;;;;;-1.87;82.36;100433.97;5090820;28;20078;-80
2021/03/02 05:02:40;;;;;;;11.48;6.60;;;;;;;-1.84;82.16;100435.66;5087409;28;20063;-80
2021/03/02 05:05:07;;;;;;;16.80;6.50;;;;;;;-2.11;82.30;100425.38;5090552;28;20071;-81
2021/03/02 05:07:34;;;;;;;14.50;6.57;;;;;;;-2.16;82.50;100422.94;5090244;28;20051;-80
2021/03/02 05:10:01;;;;;;;13.70;6.23;;;;;;;-2.13;82.70;100438.78;5090372;28;20105;-80
2021/03/02 05:12:27;;;;;;;11.13;6.30;;;;;;;-2.25;83.41;100428.69;5090081;28;20071;-80
2021/03/02 05:14:53;;;;;;;13.30;6.50;;;;;;;-2.21;83.74;100445.41;5089699;28;20408;-80
2021/03/02 05:17:21;;;;;;;10.50;5.50;;;;;;;-2.21;84.07;100445.41;5088615;28;20602;-80
2021/03/02 05:19:47;;;;;;;13.37;5.70;;;;;;;-2.44;83.41;100425.16;5090119;28;20374;-80
2021/03/02 05:22:13;;;;;;;15.70;7.83;;;;;;;-2.46;84.09;100429.72;5090476;28;21271;-80
2021/03/02 05:24:40;;;;;;;13.07;6.67;;;;;;;-2.39;83.56;100423.16;5089694;28;20052;-80
2021/03/02 05:27:06;;;;;;;12.90;5.67;;;;;;;-2.22;83.38;100439.22;5090141;28;20047;-80
2021/03/02 05:29:33;;;;;;;14.17;6.80;;;;;;;-2.17;83.04;100447.88;5084399;28;20048;-80
2021/03/02 05:32:00;;;;;;;14.63;7.00;;;;;;;-2.24;83.17;100429.53;5091957;28;20052;-80
2021/03/02 05:34:27;;;;;;;14.80;7.10;;;;;;;-2.22;82.97;100439.22;5090521;28;20083;-81
2021/03/02 05:36:54;;;;;;;14.83;6.47;;;;;;;-2.42;82.87;100421.50;5088468;28;20488;-80
2021/03/02 05:39:20;;;;;;;12.13;6.87;;;;;;;-2.32;82.90;100436.13;5087100;28;20051;-81
2021/03/02 05:41:47;;;;;;;8.53;5.10;;;;;;;-2.47;82.70;100433.28;5088705;28;20060;-81
2021/03/02 05:44:14;;;;;;;12.70;6.13;;;;;;;-2.53;81.99;100437.97;5081605;28;20056;-81
2021/03/02 05:46:42;;;;;;;16.93;5.57;;;;;;;-2.33;81.88;100446.84;5088776;28;20519;-81
2021/03/02 05:49:11;;;;;;;22.90;6.67;;;;;;;-2.34;82.32;100440.63;5090830;28;20530;-80
2021/03/02 05:51:40;;;;;;;15.33;6.33;;;;;;;-2.30;82.28;100452.03;5090793;28;20127;-80
2021/03/02 05:54:07;;;;;;;12.40;5.63;;;;;;;-2.55;82.30;100426.50;5090488;28;20056;-80
2021/03/02 05:56:37;;;;;;;13.20;6.37;;;;;;;-2.36;82.56;100458.50;5090923;28;20071;-80
2021/03/02 05:59:03;;;;;;;16.40;6.33;;;;;;;-2.35;82.87;100456.69;5090179;28;20044;-80
2021/03/02 06:01:30;;;;;;;25.23;9.33;;;;;;;-2.39;83.13;100452.47;5090250;28;20052;-80
2021/03/02 06:03:56;;;;;;;23.47;10.53;;;;;;;-2.53;83.29;100430.00;5090381;28;20499;-80
2021/03/02 06:06:22;;;;;;;20.90;10.53;;;;;;;-2.33;83.62;100468.16;5089257;28;20460;-80
2021/03/02 06:08:50;;;;;;;19.43;10.00;;;;;;;-2.42;83.43;100439.28;5090041;28;20179;-80
2021/03/02 06:11:28;;;;;;;20.83;9.80;;;;;;;-2.28;83.33;100462.63;5089913;28;20052;-80
2021/03/02 06:13:55;;;;;;;15.27;8.90;;;;;;;-2.43;83.68;100457.06;5073146;28;20052;-81
2021/03/02 06:16:22;;;;;;;22.27;8.20;;;;;;;-2.39;84.17;100455.13;5091785;28;20043;-80
2021/03/02 06:18:51;;;;;;;20.10;8.33;;;;;;;-2.38;83.67;100454.16;5092690;28;20044;-80
2021/03/02 06:21:17;;;;;;;28.90;8.67;;;;;;;-2.42;83.49;100448.13;5093690;28;20484;-81
2021/03/02 06:23:49;;;;;;;25.13;9.10;;;;;;;-2.31;83.92;100440.50;5093582;28;20400;-80
2021/03/02 06:26:27;;;;;;;17.10;8.63;;;;;;;-2.34;83.97;100435.31;5092993;28;20054;-81
2021/03/02 06:28:56;;;;;;;20.83;9.43;;;;;;;-2.32;83.79;100435.25;5093414;28;20040;-80
2021/03/02 06:31:36;;;;;;;17.97;8.67;;;;;;;-2.06;82.71;100487.31;5093253;28;20074;-80
2021/03/02 06:34:07;;;;;;;24.87;9.50;;;;;;;-2.30;82.81;100454.69;5094294;28;20161;-80
2021/03/02 06:36:34;;;;;;;18.87;9.93;;;;;;;-2.26;82.72;100476.72;5093341;28;20412;-80
2021/03/02 06:39:22;;;;;;;29.30;9.70;;;;;;;-2.25;83.25;100481.97;5094158;28;20435;-80
2021/03/02 06:41:50;;;;;;;18.63;8.97;;;;;;;-2.34;83.23;100469.94;5093704;28;20101;-80
2021/03/02 06:44:17;;;;;;;18.03;8.63;;;;;;;-2.36;83.17;100477.16;5092677;28;20052;-80
2021/03/02 06:46:44;;;;;;;20.30;9.87;;;;;;;-2.40;83.02;100450.72;5093449;28;20048;-80
2021/03/02 06:49:10;;;;;;;15.00;7.33;;;;;;;-2.27;83.35;100459.88;5092516;28;20462;-80
2021/03/02 06:51:38;;;;;;;15.80;7.80;;;;;;;-1.99;83.05;100479.88;5093118;28;20052;-80
2021/03/02 06:54:06;;;;;;;17.00;8.50;;;;;;;-1.97;83.14;100494.03;5091315;28;20066;-80
2021/03/02 06:56:32;;;;;;;24.97;9.07;;;;;;;-2.06;83.40;100479.34;5093808;28;20245;-80
2021/03/02 06:59:14;;;;;;;16.90;9.00;;;;;;;-1.87;82.77;100463.31;5092746;28;20043;-81
2021/03/02 07:01:42;;;;;;;19.97;8.90;;;;;;;-1.48;82.13;100485.44;5093350;28;20059;-80
2021/03/02 07:04:10;;;;;;;27.43;11.13;;;;;;;-1.37;82.05;100488.47;5091743;28;20048;-80
2021/03/02 07:06:37;;;;;;;22.87;9.57;;;;;;;-1.22;81.77;100480.63;5092892;28;20048;-81
2021/03/02 07:09:05;;;;;;;22.17;9.63;;;;;;;-1.05;81.69;100514.44;5092928;28;20052;-80
2021/03/02 07:11:33;;;;;;;29.43;10.30;;;;;;;-1.28;82.05;100501.34;5092852;28;20052;-81
2021/03/02 07:14:00;;;;;;;22.80;9.03;;;;;;;-1.26;82.34;100502.13;5092847;28;20055;-80
2021/03/02 07:16:28;;;;;;;21.47;8.30;;;;;;;-1.23;82.29;100487.78;5092500;28;20052;-81
2021/03/02 07:18:59;;;;;;;16.40;8.23;;;;;;;-1.18;81.78;100480.38;5091788;28;20044;-80
2021/03/02 07:21:28;;;;;;;25.00;8.67;;;;;;;-0.99;82.63;100512.34;5092249;28;20040;-80
2021/03/02 07:23:55;;;;;;;28.23;9.53;;;;;;;-0.95;82.71;100507.72;5092362;28;20063;-80
2021/03/02 07:26:23;;;;;;;18.80;10.47;;;;;;;-0.84;82.28;100512.50;5090665;28;20040;-81
2021/03/02 07:28:49;;;;;;;18.60;9.73;;;;;;;-0.80;82.66;100496.25;5092360;28;20044;-80
2021/03/02 07:31:16;;;;;;;16.57;7.57;;;;;;;-0.73;83.17;100494.97;5091257;28;20051;-81
2021/03/02 07:33:46;;;;;;;15.90;8.13;;;;;;;-0.69;83.07;100501.03;5091359;28;20097;-81
2021/03/02 07:36:13;;;;;;;17.55;7.68;;;;;;;-0.51;82.43;100509.00;5091904;28;20047;-81
2021/03/02 07:38:39;;;;;;;17.57;7.93;;;;;;;-0.42;82.44;100519.22;5092069;28;20496;-81
2021/03/02 07:41:06;;;;;;;14.80;8.10;;;;;;;-0.29;82.53;100514.94;5092757;28;20051;-81
2021/03/02 07:43:34;;;;;;;14.10;7.93;;;;;;;-0.24;82.35;100510.22;5092339;28;20447;-81
2021/03/02 07:46:02;;;;;;;17.87;9.10;;;;;;;-0.11;82.72;100509.56;5091961;28;20044;-81
2021/03/02 07:48:35;;;;;;;18.00;9.10;;;;;;;-0.01;82.42;100484.03;5092181;28;20044;-81
2021/03/02 07:51:17;;;;;;;18.57;9.37;;;;;;;0.32;80.67;100524.09;5092280;28;20101;-81
2021/03/02 07:53:45;;;;;;;17.83;9.63;;;;;;;0.32;81.63;100507.19;5092250;28;20541;-82
2021/03/02 07:56:25;;;;;;;18.20;9.63;;;;;;;0.57;81.32;100521.84;5088731;28;20052;-82
2021/03/02 07:59:16;;;;;;;23.90;10.23;;;;;;;0.74;82.55;100511.03;5092576;28;20101;-81
2021/03/02 08:01:44;;;;;;;24.37;11.47;;;;;;;0.96;83.09;100525.84;5089495;28;20056;-82
2021/03/02 08:04:28;;;;;;;23.57;11.93;;;;;;;1.14;83.65;100526.56;5092315;28;20442;-81
2021/03/02 08:07:25;;;;;;;29.73;13.87;;;;;;;1.15;83.05;100494.31;5087461;28;20040;-82
2021/03/02 08:09:53;;;;;;;25.83;12.33;;;;;;;1.47;84.49;100499.53;5091684;28;20043;-83
2021/03/02 08:12:40;;;;;;;30.77;13.83;;;;;;;2.07;83.92;100527.16;5091339;28;20476;-83
2021/03/02 08:15:45;;;;;;;29.03;13.20;;;;;;;2.42;83.23;100519.50;5087593;28;20056;-84
2021/03/02 08:18:28;;;;;;;25.43;11.60;;;;;;;2.75;82.29;100512.91;5078299;28;20492;-84
2021/03/02 08:21:08;;;;;;;29.42;12.18;;;;;;;2.89;80.88;100495.00;5092636;28;20044;-84
2021/03/02 08:23:54;;;;;;;;;;;;;;;3.22;80.19;100515.19;5092091;28;20109;-84
2021/03/02 08:26:26;;;;;;;21.40;11.23;;;;;;;3.23;79.76;100481.97;5088671;28;19920;-84
2021/03/02 08:29:09;;;;;;;30.92;11.85;;;;;;;3.55;78.57;100512.00;5091296;28;20048;-85
2021/03/02 08:31:42;;;;;;;26.95;11.10;;;;;;;3.68;77.80;100512.84;5091138;28;20484;-84
2021/03/02 08:34:10;;;;;;;31.75;12.15;;;;;;;3.83;78.35;100523.53;5091047;28;20048;-84
2021/03/02 08:36:38;;;;;;;22.25;10.73;;;;;;;3.96;77.23;100520.81;5092183;28;20087;-84
2021/03/02 08:39:10;;;;;;;25.60;11.95;;;;;;;4.02;77.53;100512.28;5091791;28;20048;-84
2021/03/02 08:41:39;;;;;;;26.33;12.23;;;;;;;3.96;77.47;100499.28;5092097;28;20541;-84
2021/03/02 08:44:06;;;;;;;31.33;12.32;;;;;;;4.07;76.89;100484.09;5091554;28;20048;-84
2021/03/02 08:46:36;;;;;;;28.58;11.82;;;;;;;4.20;76.24;100492.16;5078671;28;20060;-85
2021/03/02 08:49:09;;;;;;;;;;;;;;;4.46;76.06;100510.03;5079510;28;20055;-84
2021/03/02 08:51:36;;;;;;;25.38;11.02;;;;;;;4.36;75.82;100491.03;5091738;28;19920;-85
2021/03/02 08:54:04;;;;;;;25.05;11.93;;;;;;;4.63;75.56;100506.13;5091304;28;20492;-85
2021/03/02 08:56:32;;;;;;;23.98;11.05;;;;;;;4.72;74.72;100502.75;5091896;28;20048;-85
2021/03/02 08:59:14;;;;;;;28.92;10.95;;;;;;;4.87;74.53;100503.44;5091675;28;20458;-84
2021/03/02 09:01:41;;;;;;;29.67;13.50;;;;;;;5.00;74.65;100512.31;5079733;28;20040;-84
2021/03/02 09:04:13;;;;;;;22.50;10.75;;;;;;;5.03;74.32;100497.72;5077094;28;20233;-84
2021/03/02 09:06:41;;;;;;;22.13;10.77;;;;;;;5.13;74.28;100510.41;5072411;28;20056;-84
2021/03/02 09:09:09;;;;;;;19.75;10.93;;;;;;;5.20;74.00;100505.41;5071252;28;20505;-84
2021/03/02 09:11:41;;;;;;;28.42;11.52;;;;;;;5.27;73.76;100481.53;5085380;28;20052;-84
2021/03/02 09:14:14;;;;;;;26.00;11.45;;;;;;;5.53;73.05;100511.88;5090649;28;20054;-84
2021/03/02 09:16:43;;;;;;;18.80;10.10;;;;;;;5.71;72.55;100522.22;5091259;28;20086;-84
2021/03/02 09:19:18;;;;;;;27.50;11.98;;;;;;;5.66;72.23;100503.66;5089592;28;20048;-84
2021/03/02 09:21:47;;;;;;;23.45;11.80;;;;;;;5.80;72.36;100513.38;5091419;28;20056;-85
2021/03/02 09:24:18;;;;;;;25.33;10.88;;;;;;;5.78;71.26;100494.63;5090336;28;20048;-84
2021/03/02 09:26:57;;;;;;;23.02;11.00;;;;;;;5.99;70.98;100513.69;5089663;28;20546;-84
2021/03/02 09:29:27;;;;;;;30.02;11.98;;;;;;;6.07;70.34;100515.75;5077737;28;20480;-84
2021/03/02 09:31:57;;;;;;;22.35;11.13;;;;;;;6.10;70.87;100520.06;5091355;28;20051;-85
2021/03/02 09:34:35;;;;;;;24.77;11.68;;;;;;;6.20;70.71;100516.50;5090366;28;20044;-85
2021/03/02 09:37:07;;;;;;;23.52;12.38;;;;;;;6.15;70.92;100504.34;5091063;28;20078;-84
2021/03/02 09:39:34;;;;;;;19.70;9.82;;;;;;;6.34;69.34;100531.56;5090855;28;20520;-85
2021/03/02 09:42:13;;;;;;;22.73;11.07;;;;;;;6.41;69.71;100526.53;5091037;28;20048;-84
2021/03/02 09:44:45;;;;;;;23.38;11.65;;;;;;;6.50;68.91;100520.41;5090670;28;20457;-85
2021/03/02 09:47:17;;;;;;;23.73;10.88;;;;;;;6.55;68.72;100515.47;5090916;28;20044;-85
2021/03/02 09:49:46;;;;;;;25.02;10.80;;;;;;;6.70;68.44;100524.16;5090314;28;20037;-85
2021/03/02 09:52:33;;;;;;;25.38;11.68;;;;;;;6.66;68.36;100513.72;5090293;28;20079;-85
2021/03/02 09:55:21;;;;;;;22.60;10.23;;;;;;;6.81;68.29;100519.72;5090759;28;20121;-85
2021/03/02 09:58:01;;;;;;;19.17;10.57;;;;;;;6.71;66.87;100487.16;5088237;28;20040;-85
2021/03/02 10:00:31;;;;;;;23.15;10.65;;;;;;;6.85;67.12;100510.34;5091253;28;20097;-85
2021/03/02 10:02:59;;;;;;;25.13;11.38;;;;;;;7.05;66.97;100522.22;5091068;28;20058;-85
2021/03/02 10:05:37;;;;;;;18.80;10.90;;;;;;;7.20;66.45;100523.59;5090398;28;20048;-85
2021/03/02 10:08:32;;;;;;;23.75;12.48;;;;;;;7.30;66.25;100515.59;5090089;28;20821;-85
2021/03/02 10:11:00;;;;;;;20.85;10.27;;;;;;;7.24;65.16;100497.16;5055413;28;20076;-85
2021/03/02 10:13:29;;;;;;;27.05;12.13;;;;;;;7.48;64.96;100512.28;5090769;28;20054;-86
2021/03/02 10:16:29;;;;;;;20.50;9.40;;;;;;;7.59;64.15;100513.06;5090283;28;20321;-86
2021/03/02 10:18:58;;;;;;;21.58;10.95;;;;;;;7.58;66.06;100496.97;5078614;28;20135;-85
2021/03/02 10:21:28;;;;;;;19.08;10.10;;;;;;;7.71;64.38;100505.75;5090685;28;20052;-86
2021/03/02 10:23:57;;;;;;;21.75;9.82;;;;;;;7.75;63.20;100495.50;5090564;28;20454;-85
2021/03/02 10:26:31;;;;;;;17.80;9.73;;;;;;;7.73;63.64;100495.63;5088997;28;20055;-86
2021/03/02 10:29:00;;;;;;;20.02;10.98;;;;;;;7.80;63.74;100512.22;5090871;28;20116;-85
2021/03/02 10:31:27;;;;;;;54.17;11.60;;;;;;;7.78;62.93;100516.88;5090500;28;20052;-85
2021/03/02 10:33:53;;;;;;;21.10;11.85;;;;;;;7.79;63.67;100513.19;5090967;28;20404;-86
2021/03/02 10:36:23;;;;;;;19.20;9.80;;;;;;;7.90;63.04;100518.53;5090094;28;20056;-85
2021/03/02 10:38:50;;;;;;;18.40;9.55;;;;;;;7.97;62.62;100527.81;5091450;28;20059;-85
2021/03/02 10:41:18;;;;;;;27.00;10.63;;;;;;;7.87;62.84;100499.81;5090356;28;20488;-85
2021/03/02 10:43:48;;;;;;;20.50;10.05;;;;;;;8.00;63.26;100513.16;5090374;28;20407;-86
2021/03/02 10:46:16;;;;;;;20.13;9.45;;;;;;;8.29;60.00;100513.25;5090072;28;20117;-83
2021/03/02 10:48:44;;;;;;;18.95;9.70;;;;;;;8.34;61.40;100512.88;5090930;28;20052;-86
2021/03/02 10:51:10;;;;;;;27.52;10.05;;;;;;;8.32;61.85;100515.72;5090636;28;20169;-85
2021/03/02 10:53:37;;;;;;;27.17;10.30;;;;;;;8.25;61.53;100484.75;5090615;28;20055;-86
2021/03/02 10:56:04;;;;;;;17.38;9.60;;;;;;;8.43;61.02;100503.03;5090385;28;20050;-86
2021/03/02 10:58:30;;;;;;;22.77;10.10;;;;;;;8.28;61.32;100483.59;5089957;28;20052;-86
2021/03/02 11:00:59;;;;;;;27.67;10.18;;;;;;;8.55;61.04;100503.81;5092005;28;20056;-85
2021/03/02 11:03:28;;;;;;;21.08;10.13;;;;;;;8.60;60.29;100488.00;5093838;28;20110;-85
2021/03/02 11:05:55;;;;;;;16.80;9.95;;;;;;;8.64;60.63;100493.00;5093977;28;20072;-86
2021/03/02 11:08:25;;;;;;;19.15;9.65;;;;;;;8.78;59.83;100502.59;5095382;28;20066;-85
2021/03/02 11:10:52;;;;;;;23.50;8.68;;;;;;;8.82;60.04;100506.75;5094879;28;20055;-86
2021/03/02 11:13:19;;;;;;;16.75;8.13;;;;;;;8.80;58.48;100489.72;5093389;28;20048;-86
2021/03/02 11:15:47;;;;;;;19.85;8.50;;;;;;;8.98;58.98;100508.03;5093166;28;20060;-86
2021/03/02 11:18:14;;;;;;;11.95;7.32;;;;;;;8.90;59.38;100507.88;5092249;28;20611;-86
2021/03/02 11:20:44;;;;;;;15.57;8.80;;;;;;;8.88;58.57;100480.03;5093471;28;20056;-86
2021/03/02 11:23:12;;;;;;;31.48;9.68;;;;;;;8.93;59.04;100491.34;5093966;28;20070;-86
2021/03/02 11:25:40;;;;;;;20.17;9.93;;;;;;;9.06;59.23;100472.06;5092563;28;20040;-86
2021/03/02 11:28:08;;;;;;;24.73;9.88;;;;;;;9.30;58.82;100498.75;5093150;28;20143;-86
2021/03/02 11:30:34;;;;;;;28.42;9.48;;;;;;;9.21;58.44;100470.59;5093573;28;20044;-86